Time;durP1;ratioP1;P1;durP2;ratioP2;P2;SDS_P1;SDS_P2;PMS_P1;PMS_P2;Temp;Humidity;BMP_temperature;BMP_pressure;BME280_temperature;BME280_humidity;BME280_pressure;Samples;Min_cycle;Max_cycle;Signal;HPM_P1;HPM_P2
2023/07/25 00:01:43;;;;;;;;;;;14.80;71.50;;;;;;4141603;28;19914;-84
2023/07/25 00:04:04;;;;;;;;;;;14.80;71.30;;;;;;4142452;28;19917;-86
2023/07/25 00:06:27;;;;;;;;;;;14.70;71.30;;;;;;4141981;28;19914;-84
2023/07/25 00:08:48;;;;;;;;;;;14.80;71.40;;;;;;4143957;28;19932;-83
2023/07/25 00:11:12;;;;;;;;;;;14.70;71.50;;;;;;4143886;28;20040;-84
2023/07/25 00:13:33;;;;;;;;;;;14.70;71.40;;;;;;4138981;28;19917;-86
2023/07/25 00:15:54;;;;;;;;;;;14.70;71.40;;;;;;4141306;28;19996;-86
2023/07/25 00:18:14;;;;;;;;;;;14.70;71.40;;;;;;4141269;28;19914;-84
2023/07/25 00:20:34;;;;;;;;;;;14.70;71.40;;;;;;4141270;28;19924;-84
2023/07/25 00:22:35;;;;;;;;;;;14.70;71.40;;;;;;4142492;28;19945;-84
2023/07/25 00:24:36;;;;;;;;;;;14.60;71.40;;;;;;4141618;28;19910;-84
2023/07/25 00:26:39;;;;;;;;;;;14.60;71.40;;;;;;4132213;28;19925;-84
2023/07/25 00:28:59;;;;;;;;;;;14.60;71.40;;;;;;4137966;28;19949;-84
2023/07/25 00:31:20;;;;;;;;;;;14.50;71.30;;;;;;4140980;28;19944;-84
2023/07/25 00:33:40;;;;;;;;;;;14.60;71.40;;;;;;4140806;28;19922;-84
2023/07/25 00:36:01;;;;;;;;;;;14.60;71.40;;;;;;4140052;28;19925;-84
2023/07/25 00:38:03;;;;;;;;;;;14.50;71.30;;;;;;4122651;28;19918;-84
2023/07/25 00:40:23;;;;;;;;;;;14.50;71.40;;;;;;4139599;28;19996;-84
2023/07/25 00:42:44;;;;;;;;;;;14.50;71.30;;;;;;4139851;28;19949;-84
2023/07/25 00:45:05;;;;;;;;;;;14.50;71.30;;;;;;4138885;28;19952;-84
2023/07/25 00:47:25;;;;;;;;;;;14.40;71.20;;;;;;4139780;28;20009;-83
2023/07/25 00:49:47;;;;;;;;;;;14.40;71.40;;;;;;4141933;28;20669;-87
2023/07/25 00:52:08;;;;;;;;;;;14.40;71.40;;;;;;4137458;28;19917;-84
2023/07/25 00:54:28;;;;;;;;;;;14.40;71.40;;;;;;4140836;28;20041;-84
2023/07/25 00:56:49;;;;;;;;;;;14.40;71.40;;;;;;4141108;28;19918;-86
2023/07/25 00:59:10;;;;;;;;;;;14.40;71.50;;;;;;4139248;28;19982;-86
2023/07/25 01:01:30;;;;;;;;;;;14.40;71.50;;;;;;4137692;28;20004;-86
2023/07/25 01:03:53;;;;;;;;;;;14.30;71.40;;;;;;4142006;28;19972;-83
2023/07/25 01:05:56;;;;;;;;;;;14.30;71.40;;;;;;4141931;28;19978;-84
2023/07/25 01:07:57;;;;;;;;;;;14.30;71.40;;;;;;4138623;28;19965;-84
2023/07/25 01:09:57;;;;;;;;;;;14.30;71.40;;;;;;4140234;28;19917;-84
2023/07/25 01:11:58;;;;;;;;;;;14.30;71.40;;;;;;4138670;28;19940;-85
2023/07/25 01:13:59;;;;;;;;;;;14.30;71.50;;;;;;4142401;28;19913;-84
2023/07/25 01:16:26;;;;;;;;;;;14.20;71.50;;;;;;4140733;28;19914;-85
2023/07/25 01:18:42;;;;;;;;;;;14.20;71.50;;;;;;4138550;28;19930;-84
2023/07/25 01:21:03;;;;;;;;;;;14.30;71.60;;;;;;4136583;28;19921;-84
2023/07/25 01:23:22;;;;;;;;;;;14.20;71.60;;;;;;4137850;28;20031;-87
2023/07/25 01:25:45;;;;;;;;;;;14.20;71.60;;;;;;4143729;28;19951;-86
2023/07/25 01:28:06;;;;;;;;;;;14.20;71.70;;;;;;4139811;28;19918;-84
2023/07/25 01:30:26;;;;;;;;;;;14.10;71.70;;;;;;4140448;28;19980;-85
2023/07/25 01:32:47;;;;;;;;;;;14.10;71.80;;;;;;4140990;28;19913;-84
2023/07/25 01:35:08;;;;;;;;;;;14.10;71.80;;;;;;4141610;28;19957;-86
2023/07/25 01:37:28;;;;;;;;;;;14.10;71.80;;;;;;4142362;28;19976;-84
2023/07/25 01:39:49;;;;;;;;;;;14.20;71.80;;;;;;4138241;28;19914;-84
2023/07/25 01:42:09;;;;;;;;;;;14.10;71.80;;;;;;4141856;28;19922;-85
2023/07/25 01:44:30;;;;;;;;;;;14.00;71.90;;;;;;4140638;28;19917;-84
2023/07/25 01:46:50;;;;;;;;;;;14.00;71.80;;;;;;4139948;28;19918;-84
2023/07/25 01:49:10;;;;;;;;;;;14.10;71.90;;;;;;4138649;28;19921;-86
2023/07/25 01:51:10;;;;;;;;;;;14.00;71.80;;;;;;4139716;28;19918;-86
2023/07/25 01:53:11;;;;;;;;;;;14.10;71.90;;;;;;4139970;28;19932;-86
2023/07/25 01:55:11;;;;;;;;;;;14.00;71.80;;;;;;4143084;28;20555;-87
2023/07/25 01:57:12;;;;;;;;;;;14.00;71.80;;;;;;4144265;28;20498;-86
2023/07/25 01:59:12;;;;;;;;;;;14.00;71.80;;;;;;4144148;28;19975;-84
2023/07/25 02:01:13;;;;;;;;;;;13.90;71.90;;;;;;4142360;28;19957;-84
2023/07/25 02:03:17;;;;;;;;;;;13.90;71.80;;;;;;4143718;28;19913;-84
2023/07/25 02:05:18;;;;;;;;;;;14.00;72.00;;;;;;4141654;28;19925;-86
2023/07/25 02:07:18;;;;;;;;;;;13.90;71.90;;;;;;4143269;28;20372;-84
2023/07/25 02:09:22;;;;;;;;;;;13.90;72.00;;;;;;4143901;28;19921;-84
2023/07/25 02:11:22;;;;;;;;;;;13.90;72.00;;;;;;4142516;28;19921;-85
2023/07/25 02:13:23;;;;;;;;;;;13.90;71.90;;;;;;4139215;28;20478;-84
2023/07/25 02:15:23;;;;;;;;;;;13.80;72.00;;;;;;4142357;28;20789;-84
2023/07/25 02:17:24;;;;;;;;;;;13.90;72.10;;;;;;4144932;28;19921;-84
2023/07/25 02:19:25;;;;;;;;;;;13.90;72.10;;;;;;4147721;28;20512;-84
2023/07/25 02:21:25;;;;;;;;;;;13.80;72.10;;;;;;4153722;28;20663;-84
2023/07/25 02:23:26;;;;;;;;;;;13.80;72.10;;;;;;4147735;28;20399;-84
2023/07/25 02:25:28;;;;;;;;;;;13.90;72.20;;;;;;4146764;28;19921;-84
2023/07/25 02:27:28;;;;;;;;;;;13.80;72.20;;;;;;4142159;28;20007;-84
2023/07/25 02:29:29;;;;;;;;;;;13.80;72.60;;;;;;4142205;28;20295;-84
2023/07/25 02:31:29;;;;;;;;;;;13.70;72.40;;;;;;4143570;28;20383;-84
2023/07/25 02:33:30;;;;;;;;;;;13.80;72.60;;;;;;4148754;28;19913;-85
2023/07/25 02:35:30;;;;;;;;;;;13.80;72.50;;;;;;4142170;28;19921;-84
2023/07/25 02:37:31;;;;;;;;;;;13.80;72.50;;;;;;4136198;28;19998;-85
2023/07/25 02:39:31;;;;;;;;;;;13.80;72.60;;;;;;4143228;28;19920;-85
2023/07/25 02:41:32;;;;;;;;;;;13.80;72.60;;;;;;4138835;28;19926;-85
2023/07/25 02:43:32;;;;;;;;;;;13.80;72.60;;;;;;4141611;28;19968;-85
2023/07/25 02:45:34;;;;;;;;;;;13.80;73.30;;;;;;4142270;28;20371;-85
2023/07/25 02:47:34;;;;;;;;;;;13.80;72.60;;;;;;4141894;28;20036;-85
2023/07/25 02:49:35;;;;;;;;;;;13.80;72.60;;;;;;4142458;28;20415;-85
2023/07/25 02:51:36;;;;;;;;;;;13.80;73.00;;;;;;4142907;28;20387;-85
2023/07/25 02:53:36;;;;;;;;;;;13.80;72.80;;;;;;4142110;28;20375;-85
2023/07/25 02:55:37;;;;;;;;;;;13.80;72.90;;;;;;4142261;28;20330;-85
2023/07/25 02:57:38;;;;;;;;;;;13.70;72.60;;;;;;4138964;28;19980;-85
2023/07/25 02:59:38;;;;;;;;;;;13.80;72.70;;;;;;4142279;28;19921;-85
2023/07/25 03:01:39;;;;;;;;;;;13.70;72.70;;;;;;4141790;28;19922;-85
2023/07/25 03:03:39;;;;;;;;;;;13.70;72.60;;;;;;4143395;28;20343;-85
2023/07/25 03:05:40;;;;;;;;;;;13.70;72.80;;;;;;4142468;28;19914;-84
2023/07/25 03:07:40;;;;;;;;;;;13.60;72.60;;;;;;4141530;28;20486;-85
2023/07/25 03:09:41;;;;;;;;;;;13.60;72.50;;;;;;4141536;28;19917;-85
2023/07/25 03:11:41;;;;;;;;;;;13.70;72.60;;;;;;4145400;28;19970;-84
2023/07/25 03:13:42;;;;;;;;;;;13.60;73.30;;;;;;4141860;28;19921;-84
2023/07/25 03:15:43;;;;;;;;;;;13.60;72.50;;;;;;4141631;28;19921;-84
2023/07/25 03:17:43;;;;;;;;;;;13.60;72.60;;;;;;4142642;28;19936;-85
2023/07/25 03:19:44;;;;;;;;;;;13.50;72.40;;;;;;4141419;28;20395;-85
2023/07/25 03:21:44;;;;;;;;;;;13.50;72.40;;;;;;4143335;28;19952;-84
2023/07/25 03:23:47;;;;;;;;;;;13.50;72.50;;;;;;4122843;28;19921;-84
2023/07/25 03:25:48;;;;;;;;;;;13.50;72.40;;;;;;4142213;28;20502;-84
2023/07/25 03:27:48;;;;;;;;;;;13.40;72.30;;;;;;4144492;28;20567;-84
2023/07/25 03:29:49;;;;;;;;;;;13.40;72.50;;;;;;4141507;28;19918;-85
2023/07/25 03:31:49;;;;;;;;;;;13.40;72.40;;;;;;4142055;28;20386;-84
2023/07/25 03:33:50;;;;;;;;;;;13.40;72.50;;;;;;4142340;28;20311;-84
2023/07/25 03:35:51;;;;;;;;;;;13.40;72.80;;;;;;4149040;28;19924;-85
2023/07/25 03:37:51;;;;;;;;;;;13.30;72.60;;;;;;4140255;28;20284;-85
2023/07/25 03:39:52;;;;;;;;;;;13.20;72.60;;;;;;4141465;28;19921;-85
2023/07/25 03:41:53;;;;;;;;;;;13.20;72.40;;;;;;4142167;28;19922;-85
2023/07/25 03:43:53;;;;;;;;;;;13.30;72.60;;;;;;4143354;28;20375;-85
2023/07/25 03:45:54;;;;;;;;;;;13.30;72.50;;;;;;4144397;28;20307;-84
2023/07/25 03:47:55;;;;;;;;;;;13.20;72.50;;;;;;4142323;28;19968;-84
2023/07/25 03:49:56;;;;;;;;;;;13.10;72.70;;;;;;4142006;28;19914;-84
2023/07/25 03:51:56;;;;;;;;;;;13.20;72.80;;;;;;4142490;28;19913;-84
2023/07/25 03:53:57;;;;;;;;;;;13.10;72.70;;;;;;4140834;28;20000;-84
2023/07/25 03:55:57;;;;;;;;;;;13.10;72.70;;;;;;4143236;28;20363;-84
2023/07/25 03:57:58;;;;;;;;;;;13.20;72.80;;;;;;4141046;28;20591;-84
2023/07/25 03:59:59;;;;;;;;;;;13.10;72.80;;;;;;4139588;28;19917;-84
2023/07/25 04:01:59;;;;;;;;;;;13.10;72.60;;;;;;4138708;28;20364;-85
2023/07/25 04:04:00;;;;;;;;;;;13.00;72.70;;;;;;4142225;28;20287;-85
2023/07/25 04:06:01;;;;;;;;;;;13.10;72.80;;;;;;4141107;28;20084;-85
2023/07/25 04:08:01;;;;;;;;;;;13.10;73.00;;;;;;4138044;28;19964;-85
2023/07/25 04:10:02;;;;;;;;;;;13.10;73.30;;;;;;4142772;28;20622;-85
2023/07/25 04:12:03;;;;;;;;;;;13.10;73.60;;;;;;4141668;28;19921;-84
2023/07/25 04:14:04;;;;;;;;;;;13.10;73.70;;;;;;4143696;28;20691;-85
2023/07/25 04:16:04;;;;;;;;;;;13.20;73.90;;;;;;4140030;28;20343;-85
2023/07/25 04:18:05;;;;;;;;;;;13.10;74.00;;;;;;4141139;28;19921;-86
2023/07/25 04:20:06;;;;;;;;;;;13.20;74.30;;;;;;4146306;28;20348;-87
2023/07/25 04:22:07;;;;;;;;;;;13.10;74.30;;;;;;4140601;28;19914;-86
2023/07/25 04:24:07;;;;;;;;;;;13.20;74.40;;;;;;4140349;28;19914;-85
2023/07/25 04:26:08;;;;;;;;;;;13.20;74.70;;;;;;4138398;28;19913;-86
2023/07/25 04:28:09;;;;;;;;;;;13.20;75.10;;;;;;4137910;28;20000;-86
2023/07/25 04:30:10;;;;;;;;;;;13.30;75.20;;;;;;4140601;28;19921;-86
2023/07/25 04:32:10;;;;;;;;;;;13.30;75.10;;;;;;4142377;28;19921;-85
2023/07/25 04:34:11;;;;;;;;;;;13.30;75.30;;;;;;4138798;28;19918;-86
2023/07/25 04:36:32;;;;;;;;;;;13.30;75.20;;;;;;4140153;28;19928;-84
2023/07/25 04:38:53;;;;;;;;;;;13.30;75.00;;;;;;4138942;28;20021;-84
2023/07/25 04:41:13;;;;;;;;;;;13.30;75.00;;;;;;4139958;28;19953;-86
2023/07/25 04:43:34;;;;;;;;;;;13.40;75.10;;;;;;4142452;28;19917;-87
2023/07/25 04:45:54;;;;;;;;;;;13.40;74.90;;;;;;4137867;28;19914;-86
2023/07/25 04:48:15;;;;;;;;;;;13.40;75.50;;;;;;4137836;28;19913;-86
2023/07/25 04:50:35;;;;;;;;;;;13.50;75.70;;;;;;4139063;28;19921;-87
2023/07/25 04:52:56;;;;;;;;;;;13.60;75.90;;;;;;4139668;28;19928;-84
2023/07/25 04:55:16;;;;;;;;;;;13.60;76.40;;;;;;4137814;28;19920;-84
2023/07/25 04:57:37;;;;;;;;;;;13.60;77.20;;;;;;4140981;28;19928;-84
2023/07/25 04:59:57;;;;;;;;;;;13.70;77.80;;;;;;4141781;28;19925;-84
2023/07/25 05:02:21;;;;;;;;;;;13.80;77.90;;;;;;4138949;28;19913;-84
2023/07/25 05:04:42;;;;;;;;;;;13.90;77.90;;;;;;4159057;28;19945;-85
2023/07/25 05:07:03;;;;;;;;;;;14.00;78.10;;;;;;4149571;28;19932;-85
2023/07/25 05:09:03;;;;;;;;;;;14.10;78.40;;;;;;4141088;28;19968;-84
2023/07/25 05:11:04;;;;;;;;;;;14.20;78.80;;;;;;4141131;28;20315;-84
2023/07/25 05:13:04;;;;;;;;;;;14.30;78.80;;;;;;4138663;28;20359;-83
2023/07/25 05:15:05;;;;;;;;;;;14.40;78.30;;;;;;4140848;28;19953;-84
2023/07/25 05:17:06;;;;;;;;;;;14.40;78.70;;;;;;4141321;28;20298;-84
2023/07/25 05:19:06;;;;;;;;;;;14.50;78.40;;;;;;4141418;28;19923;-84
2023/07/25 05:21:07;;;;;;;;;;;14.60;78.50;;;;;;4140138;28;19914;-83
2023/07/25 05:23:08;;;;;;;;;;;14.70;78.20;;;;;;4139776;28;19913;-86
2023/07/25 05:25:08;;;;;;;;;;;14.80;77.50;;;;;;4141155;28;19940;-84
2023/07/25 05:27:09;;;;;;;;;;;14.90;77.40;;;;;;4139071;28;19921;-84
2023/07/25 05:29:09;;;;;;;;;;;14.90;76.90;;;;;;4136126;28;20109;-84
2023/07/25 05:31:10;;;;;;;;;;;14.90;76.60;;;;;;4140917;28;20210;-85
2023/07/25 05:33:10;;;;;;;;;;;15.00;75.70;;;;;;4139037;28;19920;-83
2023/07/25 05:35:13;;;;;;;;;;;15.00;75.50;;;;;;4140776;28;19918;-84
2023/07/25 05:37:16;;;;;;;;;;;15.00;75.00;;;;;;4139565;28;20465;-84
2023/07/25 05:39:17;;;;;;;;;;;15.10;75.00;;;;;;4141771;28;20012;-84
2023/07/25 05:41:18;;;;;;;;;;;15.10;74.60;;;;;;4138380;28;20299;-85
2023/07/25 05:43:18;;;;;;;;;;;15.20;74.70;;;;;;4140352;28;19980;-84
2023/07/25 05:45:20;;;;;;;;;;;15.10;73.90;;;;;;4139505;28;19922;-83
2023/07/25 05:47:20;;;;;;;;;;;15.20;73.50;;;;;;4137291;28;20009;-84
2023/07/25 05:49:21;;;;;;;;;;;15.20;73.30;;;;;;4138133;28;19922;-85
2023/07/25 05:51:21;;;;;;;;;;;15.20;73.00;;;;;;4139157;28;20155;-83
2023/07/25 05:53:22;;;;;;;;;;;15.20;72.90;;;;;;4142922;28;21072;-84
2023/07/25 05:55:29;;;;;;;;;;;15.20;72.80;;;;;;4136835;28;19921;-83
2023/07/25 05:57:30;;;;;;;;;;;15.20;72.80;;;;;;4140466;28;19914;-84
2023/07/25 05:59:31;;;;;;;;;;;15.20;72.90;;;;;;4142794;28;19975;-84
2023/07/25 06:01:31;;;;;;;;;;;15.20;72.60;;;;;;4136906;28;20008;-84
2023/07/25 06:03:32;;;;;;;;;;;15.20;72.40;;;;;;4141004;28;20008;-84
2023/07/25 06:05:36;;;;;;;;;;;15.20;72.50;;;;;;4139384;28;20000;-85
2023/07/25 06:07:36;;;;;;;;;;;15.20;72.30;;;;;;4141402;28;20000;-84
2023/07/25 06:09:37;;;;;;;;;;;15.20;72.30;;;;;;4139202;28;19913;-84
2023/07/25 06:11:37;;;;;;;;;;;15.10;72.10;;;;;;4139708;28;20996;-84
2023/07/25 06:13:39;;;;;;;;;;;15.20;72.20;;;;;;4140837;28;19953;-83
2023/07/25 06:15:39;;;;;;;;;;;15.20;72.20;;;;;;4138679;28;20407;-83
2023/07/25 06:17:40;;;;;;;;;;;15.10;72.20;;;;;;4140281;28;19982;-83
2023/07/25 06:19:40;;;;;;;;;;;15.10;72.20;;;;;;4138747;28;19921;-82
2023/07/25 06:21:41;;;;;;;;;;;15.20;72.20;;;;;;4142096;28;19921;-83
2023/07/25 06:23:41;;;;;;;;;;;15.20;72.20;;;;;;4141845;28;19948;-84
2023/07/25 06:25:42;;;;;;;;;;;15.10;72.20;;;;;;4140283;28;20302;-83
2023/07/25 06:27:42;;;;;;;;;;;15.10;72.20;;;;;;4138194;28;19924;-84
2023/07/25 06:29:43;;;;;;;;;;;15.10;72.20;;;;;;4139230;28;20311;-83
2023/07/25 06:31:43;;;;;;;;;;;15.10;72.30;;;;;;4141951;28;19959;-83
2023/07/25 06:33:44;;;;;;;;;;;15.10;72.50;;;;;;4141345;28;19918;-84
2023/07/25 06:35:44;;;;;;;;;;;15.10;72.40;;;;;;4137216;28;19925;-83
2023/07/25 06:37:45;;;;;;;;;;;15.20;72.40;;;;;;4139559;28;19922;-84
2023/07/25 06:39:48;;;;;;;;;;;15.10;72.30;;;;;;4140254;28;20379;-83
2023/07/25 06:41:49;;;;;;;;;;;15.10;72.30;;;;;;4139145;28;19920;-84
2023/07/25 06:43:49;;;;;;;;;;;15.10;72.40;;;;;;4140298;28;20016;-83
2023/07/25 06:45:50;;;;;;;;;;;15.10;72.50;;;;;;4137011;28;20457;-84
2023/07/25 06:47:51;;;;;;;;;;;15.10;72.50;;;;;;4141446;28;19914;-85
2023/07/25 06:49:52;;;;;;;;;;;15.10;72.60;;;;;;4139654;28;19917;-83
2023/07/25 06:52:00;;;;;;;;;;;15.20;72.70;;;;;;4140970;28;21924;-83
2023/07/25 06:54:20;;;;;;;;;;;15.10;72.60;;;;;;4143146;28;19972;-84
2023/07/25 06:56:24;;;;;;;;;;;15.20;72.90;;;;;;4138475;28;19920;-83
2023/07/25 06:58:26;;;;;;;;;;;15.20;73.00;;;;;;4136784;28;19926;-84
2023/07/25 07:00:47;;;;;;;;;;;15.30;73.10;;;;;;4143194;28;19925;-83
2023/07/25 07:03:07;;;;;;;;;;;15.30;73.00;;;;;;4139247;28;19922;-83
2023/07/25 07:05:28;;;;;;;;;;;15.30;72.80;;;;;;4142558;28;19914;-83
2023/07/25 07:07:48;;;;;;;;;;;15.40;72.80;;;;;;4143774;28;20008;-83
2023/07/25 07:10:09;;;;;;;;;;;15.50;72.80;;;;;;4140834;28;19960;-84
2023/07/25 07:12:29;;;;;;;;;;;15.50;72.70;;;;;;4142414;28;19914;-84
2023/07/25 07:14:50;;;;;;;;;;;15.60;72.70;;;;;;4143817;28;19920;-83
2023/07/25 07:16:51;;;;;;;;;;;15.60;72.50;;;;;;4142921;28;19924;-84
2023/07/25 07:18:51;;;;;;;;;;;15.70;72.60;;;;;;4141622;28;20012;-84
2023/07/25 07:20:52;;;;;;;;;;;15.80;72.70;;;;;;4139504;28;19953;-84
2023/07/25 07:22:53;;;;;;;;;;;15.80;72.50;;;;;;4142644;28;19921;-84
2023/07/25 07:24:55;;;;;;;;;;;15.80;72.60;;;;;;4143997;28;19913;-83
2023/07/25 07:26:59;;;;;;;;;;;16.00;72.60;;;;;;4140075;28;20071;-84
2023/07/25 07:29:00;;;;;;;;;;;16.00;72.40;;;;;;4142748;28;19920;-85
2023/07/25 07:31:00;;;;;;;;;;;16.10;72.50;;;;;;4139129;28;19913;-84
2023/07/25 07:33:01;;;;;;;;;;;16.10;72.40;;;;;;4143323;28;19921;-85
2023/07/25 07:35:01;;;;;;;;;;;16.20;72.40;;;;;;4144218;28;20545;-85
2023/07/25 07:37:02;;;;;;;;;;;16.30;72.50;;;;;;4141399;28;19913;-84
2023/07/25 07:39:02;;;;;;;;;;;16.30;72.50;;;;;;4143114;28;19921;-85
2023/07/25 07:41:03;;;;;;;;;;;16.40;72.30;;;;;;4141024;28;19921;-84
2023/07/25 07:43:04;;;;;;;;;;;16.50;72.30;;;;;;4138440;28;19925;-84
2023/07/25 07:45:05;;;;;;;;;;;16.60;72.00;;;;;;4138172;28;19953;-85
2023/07/25 07:47:06;;;;;;;;;;;16.60;71.70;;;;;;4139354;28;19921;-84
2023/07/25 07:49:06;;;;;;;;;;;16.70;71.90;;;;;;4142917;28;20364;-84
2023/07/25 07:51:07;;;;;;;;;;;16.80;71.60;;;;;;4155889;28;19925;-84
2023/07/25 07:53:07;;;;;;;;;;;16.90;71.40;;;;;;4158088;28;20446;-84
2023/07/25 07:55:10;;;;;;;;;;;17.00;71.10;;;;;;4143704;28;20000;-85
2023/07/25 07:57:10;;;;;;;;;;;17.00;70.80;;;;;;4143404;28;19913;-84
2023/07/25 07:59:11;;;;;;;;;;;17.20;70.40;;;;;;4142294;28;20579;-84
2023/07/25 08:01:19;;;;;;;;;;;17.20;69.90;;;;;;4144327;28;19917;-84
2023/07/25 08:03:20;;;;;;;;;;;17.20;70.10;;;;;;4144287;28;19927;-84
2023/07/25 08:05:20;;;;;;;;;;;17.30;68.60;;;;;;4142289;28;20055;-84
2023/07/25 08:07:21;;;;;;;;;;;17.40;67.40;;;;;;4143046;28;19927;-84
2023/07/25 08:09:21;;;;;;;;;;;17.40;67.00;;;;;;4141356;28;19921;-83
2023/07/25 08:11:22;;;;;;;;;;;17.40;65.30;;;;;;4144239;28;19984;-85
2023/07/25 08:13:23;;;;;;;;;;;17.40;65.30;;;;;;4141073;28;19945;-84
2023/07/25 08:15:23;;;;;;;;;;;17.40;65.60;;;;;;4139934;28;19921;-85
2023/07/25 08:17:24;;;;;;;;;;;17.40;65.70;;;;;;4142344;28;19920;-85
2023/07/25 08:19:24;;;;;;;;;;;17.40;65.50;;;;;;4139606;28;20712;-85
2023/07/25 08:21:25;;;;;;;;;;;17.40;64.60;;;;;;4139984;28;20015;-85
2023/07/25 08:23:26;;;;;;;;;;;17.30;64.90;;;;;;4138176;28;21358;-85
2023/07/25 08:25:26;;;;;;;;;;;17.40;65.20;;;;;;4139157;28;19997;-85
2023/07/25 08:27:27;;;;;;;;;;;17.30;65.10;;;;;;4137619;28;19928;-85
2023/07/25 08:29:28;;;;;;;;;;;17.30;65.10;;;;;;4142556;28;19918;-84
2023/07/25 08:31:29;;;;;;;;;;;17.40;65.20;;;;;;4137673;28;19914;-85
2023/07/25 08:33:34;;;;;;;;;;;17.40;65.10;;;;;;4141771;28;19913;-85
2023/07/25 08:35:35;;;;;;;;;;;17.40;65.60;;;;;;4139024;28;19953;-85
2023/07/25 08:37:35;;;;;;;;;;;17.40;65.70;;;;;;4139025;28;19943;-85
2023/07/25 08:39:36;;;;;;;;;;;17.60;66.00;;;;;;4137010;28;19913;-86
2023/07/25 08:41:39;;;;;;;;;;;17.60;66.10;;;;;;4122573;28;19914;-85
2023/07/25 08:43:40;;;;;;;;;;;17.70;65.70;;;;;;4139041;28;19936;-86
2023/07/25 08:45:42;;;;;;;;;;;17.80;65.70;;;;;;4138820;28;19914;-86
2023/07/25 08:47:44;;;;;;;;;;;17.80;63.80;;;;;;4138949;28;19918;-86
2023/07/25 08:49:46;;;;;;;;;;;17.90;64.00;;;;;;4140455;28;19948;-85
2023/07/25 08:51:47;;;;;;;;;;;17.90;62.40;;;;;;4138889;28;19921;-85
2023/07/25 08:54:08;;;;;;;;;;;17.90;62.80;;;;;;4138588;28;19921;-85
2023/07/25 08:56:09;;;;;;;;;;;17.90;61.90;;;;;;4153632;28;20006;-85
2023/07/25 08:58:10;;;;;;;;;;;17.90;62.00;;;;;;4139764;28;19965;-86
2023/07/25 09:00:12;;;;;;;;;;;17.90;62.00;;;;;;4138824;28;19917;-86
2023/07/25 09:02:13;;;;;;;;;;;17.90;61.90;;;;;;4137597;28;19925;-86
2023/07/25 09:04:14;;;;;;;;;;;17.90;62.00;;;;;;4140942;28;19918;-86
2023/07/25 09:06:14;;;;;;;;;;;17.80;61.80;;;;;;4137426;28;19917;-85
2023/07/25 09:08:15;;;;;;;;;;;17.80;62.00;;;;;;4138558;28;19921;-85
2023/07/25 09:10:16;;;;;;;;;;;17.70;60.90;;;;;;4137226;28;20008;-85
2023/07/25 09:12:17;;;;;;;;;;;17.80;61.80;;;;;;4139142;28;19937;-85
2023/07/25 09:14:18;;;;;;;;;;;17.80;61.90;;;;;;4140419;28;20008;-86
2023/07/25 09:16:18;;;;;;;;;;;17.80;62.40;;;;;;4133425;28;19918;-85
2023/07/25 09:18:19;;;;;;;;;;;17.90;63.00;;;;;;4137814;28;20028;-85
2023/07/25 09:20:20;;;;;;;;;;;17.90;63.40;;;;;;4135927;28;19928;-86
2023/07/25 09:22:27;;;;;;;;;;;18.00;63.00;;;;;;4138092;28;19913;-85
2023/07/25 09:24:36;;;;;;;;;;;18.10;62.60;;;;;;4151819;28;20602;-84
2023/07/25 09:26:39;;;;;;;;;;;18.20;60.40;;;;;;4132897;28;20203;-87
2023/07/25 09:28:50;;;;;;;;;;;18.30;60.80;;;;;;4137904;28;19918;-85
2023/07/25 09:30:50;;;;;;;;;;;18.30;59.80;;;;;;4137539;28;20559;-85
2023/07/25 09:32:51;;;;;;;;;;;18.40;59.10;;;;;;4136638;28;19921;-85
2023/07/25 09:34:54;;;;;;;;;;;18.40;59.30;;;;;;4135243;28;19929;-86
2023/07/25 09:37:01;;;;;;;;;;;18.50;59.30;;;;;;4132504;28;19913;-84
2023/07/25 09:39:02;;;;;;;;;;;18.50;58.40;;;;;;4155787;28;19917;-86
2023/07/25 09:41:03;;;;;;;;;;;18.50;57.60;;;;;;4137200;28;19964;-85
2023/07/25 09:43:04;;;;;;;;;;;18.40;57.40;;;;;;4135428;28;20016;-84
2023/07/25 09:45:07;;;;;;;;;;;18.40;57.20;;;;;;4140693;28;20012;-84
2023/07/25 09:47:07;;;;;;;;;;;18.40;56.90;;;;;;4137161;28;20303;-87
2023/07/25 09:49:08;;;;;;;;;;;18.30;56.60;;;;;;4135220;28;19921;-86
2023/07/25 09:51:10;;;;;;;;;;;18.30;57.10;;;;;;4137793;28;19921;-87
2023/07/25 09:53:14;;;;;;;;;;;18.30;57.30;;;;;;4137726;28;19921;-86
2023/07/25 09:55:15;;;;;;;;;;;18.30;57.70;;;;;;4137881;28;19967;-85
2023/07/25 09:57:15;;;;;;;;;;;18.30;58.00;;;;;;4137346;28;19917;-85
2023/07/25 09:59:16;;;;;;;;;;;18.30;57.60;;;;;;4154068;28;19967;-86
2023/07/25 10:01:17;;;;;;;;;;;18.40;58.00;;;;;;4140576;28;20376;-85
2023/07/25 10:03:20;;;;;;;;;;;18.40;57.90;;;;;;4142878;28;20013;-85
2023/07/25 10:05:21;;;;;;;;;;;18.40;57.40;;;;;;4135567;28;20008;-85
2023/07/25 10:07:24;;;;;;;;;;;18.50;57.40;;;;;;4135582;28;19952;-84
2023/07/25 10:09:25;;;;;;;;;;;18.40;57.30;;;;;;4136122;28;20023;-85
2023/07/25 10:11:26;;;;;;;;;;;18.50;57.20;;;;;;4140272;28;19921;-85
2023/07/25 10:13:28;;;;;;;;;;;18.50;57.00;;;;;;4137602;28;19949;-85
2023/07/25 10:15:30;;;;;;;;;;;18.50;57.30;;;;;;4139129;28;19913;-85
2023/07/25 10:17:30;;;;;;;;;;;18.50;57.50;;;;;;4133457;28;19913;-85
2023/07/25 10:19:46;;;;;;;;;;;18.50;57.80;;;;;;4142860;28;19992;-85
2023/07/25 10:21:51;;;;;;;;;;;18.50;57.40;;;;;;4144425;28;19917;-86
2023/07/25 10:24:11;;;;;;;;;;;18.50;57.00;;;;;;4142049;28;19945;-85
2023/07/25 10:26:31;;;;;;;;;;;18.60;57.20;;;;;;4143102;28;19999;-85
2023/07/25 10:28:52;;;;;;;;;;;18.70;56.70;;;;;;4142138;28;19968;-85
2023/07/25 10:31:23;;;;;;;;;;;18.70;53.80;;;;;;4143950;28;19925;-85
2023/07/25 10:33:43;;;;;;;;;;;18.80;54.30;;;;;;4144485;28;19968;-85
2023/07/25 10:36:05;;;;;;;;;;;18.80;54.30;;;;;;4140336;28;19921;-85
2023/07/25 10:38:34;;;;;;;;;;;18.90;53.60;;;;;;4144355;28;19918;-85
2023/07/25 10:40:54;;;;;;;;;;;19.00;53.20;;;;;;4160389;28;20457;-85
2023/07/25 10:43:15;;;;;;;;;;;19.00;53.20;;;;;;4146717;28;19923;-85
2023/07/25 10:45:41;;;;;;;;;;;19.00;52.30;;;;;;4142352;28;19922;-85
2023/07/25 10:48:02;;;;;;;;;;;19.00;51.70;;;;;;4143828;28;19941;-86
2023/07/25 10:50:26;;;;;;;;;;;19.00;51.90;;;;;;4143333;28;19976;-86
2023/07/25 10:52:47;;;;;;;;;;;18.90;52.50;;;;;;4154216;28;19913;-85
2023/07/25 10:55:09;;;;;;;;;;;18.80;51.30;;;;;;4164025;28;19932;-88
2023/07/25 10:57:29;;;;;;;;;;;18.90;51.00;;;;;;4147836;28;19926;-84
2023/07/25 11:00:00;;;;;;;;;;;18.80;51.20;;;;;;4143018;28;19921;-85
2023/07/25 11:02:01;;;;;;;;;;;18.80;51.10;;;;;;4144638;28;19920;-85
2023/07/25 11:04:20;;;;;;;;;;;18.80;50.90;;;;;;4145337;28;19965;-85
2023/07/25 11:06:20;;;;;;;;;;;18.80;51.50;;;;;;4159443;28;19917;-86
2023/07/25 11:08:21;;;;;;;;;;;18.80;52.30;;;;;;4141811;28;20403;-86
2023/07/25 11:10:23;;;;;;;;;;;18.90;52.20;;;;;;4145382;28;20007;-86
2023/07/25 11:12:24;;;;;;;;;;;18.80;52.00;;;;;;4140707;28;19922;-85
2023/07/25 11:14:25;;;;;;;;;;;18.80;51.80;;;;;;4141609;28;19968;-87
2023/07/25 11:16:26;;;;;;;;;;;18.80;51.80;;;;;;4143760;28;19979;-86
2023/07/25 11:18:27;;;;;;;;;;;18.80;52.20;;;;;;4138474;28;19913;-84
2023/07/25 11:20:27;;;;;;;;;;;18.80;52.90;;;;;;4140889;28;19913;-84
2023/07/25 11:22:28;;;;;;;;;;;18.70;53.10;;;;;;4142283;28;19909;-84
2023/07/25 11:24:38;;;;;;;;;;;18.80;50.90;;;;;;4140290;28;19920;-85
2023/07/25 11:26:39;;;;;;;;;;;18.90;51.10;;;;;;4139484;28;19921;-85
2023/07/25 11:28:40;;;;;;;;;;;18.80;51.00;;;;;;4143023;28;19956;-86
2023/07/25 11:30:42;;;;;;;;;;;18.90;51.30;;;;;;4138815;28;19917;-84
2023/07/25 11:32:47;;;;;;;;;;;18.90;51.40;;;;;;4128899;28;19925;-85
2023/07/25 11:34:48;;;;;;;;;;;19.00;51.20;;;;;;4141278;28;20395;-85
2023/07/25 11:36:49;;;;;;;;;;;18.90;51.20;;;;;;4144941;28;19913;-84
2023/07/25 11:38:49;;;;;;;;;;;19.00;50.00;;;;;;4142106;28;19927;-85
2023/07/25 11:40:51;;;;;;;;;;;19.00;49.70;;;;;;4142093;28;20436;-85
2023/07/25 11:42:51;;;;;;;;;;;19.10;50.20;;;;;;4143284;28;19917;-85
2023/07/25 11:44:52;;;;;;;;;;;19.00;49.90;;;;;;4137599;28;20466;-85
2023/07/25 11:46:53;;;;;;;;;;;19.10;49.80;;;;;;4139198;28;20236;-87
2023/07/25 11:48:54;;;;;;;;;;;19.10;50.50;;;;;;4144728;28;19979;-85
2023/07/25 11:50:55;;;;;;;;;;;19.10;49.20;;;;;;4144407;28;19918;-85
2023/07/25 11:52:56;;;;;;;;;;;19.20;49.30;;;;;;4143759;28;20397;-85
2023/07/25 11:54:56;;;;;;;;;;;19.10;49.20;;;;;;4144247;28;20024;-85
2023/07/25 11:57:00;;;;;;;;;;;19.20;49.90;;;;;;4143749;28;19913;-86
2023/07/25 11:59:01;;;;;;;;;;;19.20;49.00;;;;;;4120467;28;20457;-85
2023/07/25 12:01:07;;;;;;;;;;;19.20;48.50;;;;;;4122955;28;19921;-88
2023/07/25 12:03:17;;;;;;;;;;;19.20;48.20;;;;;;4141378;28;19921;-87
2023/07/25 12:05:27;;;;;;;;;;;19.20;48.10;;;;;;4141362;28;19929;-87
2023/07/25 12:07:46;;;;;;;;;;;19.20;48.40;;;;;;4152743;28;19995;-86
2023/07/25 12:09:53;;;;;;;;;;;19.30;47.60;;;;;;4139926;28;19917;-85
2023/07/25 12:11:54;;;;;;;;;;;19.20;47.20;;;;;;4137315;28;19928;-85